EmailTwitter


Surface observations / Quebec / EGMC

Regions: Quebec | Canada | USA | Europe | France | UK | Elsewhere
Station
Display
Info & Location for EGMC | Help decoding METAR

Weather Conditions observed on 2017/05/24 at 20:50 UTC at SOUTHEND-ON-SEA, UK (EGMC)

Temperature: 15.0 Celsius.

Dewpoint: 12.0 Celsius.

Relative Humidity: 82%

Winds: East at 7 km/h or 4 knots.

Mean Sea level Pressure: 102.50 kilopascals.

Coded METAR:

EGMC 242050Z 08004KT 040V130 CAVOK 15/12 Q1025=